sensor_id;sensor_type;location;lat;lon;timestamp;P1;durP1;ratioP1;P2;durP2;ratioP2
54705;SDS011;40603;48.774;8.916;2023-09-18T00:01:57;5.32;;;2.13;;
54705;SDS011;40603;48.774;8.916;2023-09-18T00:04:22;12.07;;;3.20;;
54705;SDS011;40603;48.774;8.916;2023-09-18T00:06:48;5.72;;;2.72;;
54705;SDS011;40603;48.774;8.916;2023-09-18T00:09:13;4.18;;;2.70;;
54705;SDS011;40603;48.774;8.916;2023-09-18T00:11:39;5.13;;;2.25;;
54705;SDS011;40603;48.774;8.916;2023-09-18T00:14:04;3.60;;;2.55;;
54705;SDS011;40603;48.774;8.916;2023-09-18T00:16:30;3.97;;;2.55;;
54705;SDS011;40603;48.774;8.916;2023-09-18T00:18:55;3.88;;;2.40;;
54705;SDS011;40603;48.774;8.916;2023-09-18T00:21:20;5.85;;;2.67;;
54705;SDS011;40603;48.774;8.916;2023-09-18T00:23:46;4.35;;;2.55;;
54705;SDS011;40603;48.774;8.916;2023-09-18T00:26:11;8.18;;;2.65;;
54705;SDS011;40603;48.774;8.916;2023-09-18T00:28:37;5.72;;;2.75;;
54705;SDS011;40603;48.774;8.916;2023-09-18T00:31:02;5.43;;;2.90;;
54705;SDS011;40603;48.774;8.916;2023-09-18T00:33:27;7.82;;;2.88;;
54705;SDS011;40603;48.774;8.916;2023-09-18T00:35:53;4.55;;;2.60;;
54705;SDS011;40603;48.774;8.916;2023-09-18T00:38:18;5.50;;;2.75;;
54705;SDS011;40603;48.774;8.916;2023-09-18T00:40:44;4.95;;;2.50;;
54705;SDS011;40603;48.774;8.916;2023-09-18T00:43:09;5.60;;;2.80;;
54705;SDS011;40603;48.774;8.916;2023-09-18T00:45:38;6.10;;;2.85;;
54705;SDS011;40603;48.774;8.916;2023-09-18T00:48:07;6.72;;;2.80;;
54705;SDS011;40603;48.774;8.916;2023-09-18T00:50:32;3.83;;;2.60;;
54705;SDS011;40603;48.774;8.916;2023-09-18T00:52:58;5.13;;;3.35;;
54705;SDS011;40603;48.774;8.916;2023-09-18T00:55:24;3.75;;;2.65;;
54705;SDS011;40603;48.774;8.916;2023-09-18T00:57:49;4.72;;;2.70;;
54705;SDS011;40603;48.774;8.916;2023-09-18T01:00:15;5.90;;;2.78;;
54705;SDS011;40603;48.774;8.916;2023-09-18T01:02:42;8.27;;;2.78;;
54705;SDS011;40603;48.774;8.916;2023-09-18T01:05:08;5.28;;;2.40;;
54705;SDS011;40603;48.774;8.916;2023-09-18T01:07:33;2.97;;;2.53;;
54705;SDS011;40603;48.774;8.916;2023-09-18T01:09:58;5.22;;;2.83;;
54705;SDS011;40603;48.774;8.916;2023-09-18T01:12:33;6.00;;;2.78;;
54705;SDS011;40603;48.774;8.916;2023-09-18T01:15:03;4.43;;;2.85;;
54705;SDS011;40603;48.774;8.916;2023-09-18T01:17:35;4.97;;;2.70;;
54705;SDS011;40603;48.774;8.916;2023-09-18T01:20:03;4.70;;;2.78;;
54705;SDS011;40603;48.774;8.916;2023-09-18T01:22:31;4.78;;;2.67;;
54705;SDS011;40603;48.774;8.916;2023-09-18T01:24:56;4.57;;;2.60;;
54705;SDS011;40603;48.774;8.916;2023-09-18T01:27:21;3.95;;;2.70;;
54705;SDS011;40603;48.774;8.916;2023-09-18T01:29:47;8.23;;;3.70;;
54705;SDS011;40603;48.774;8.916;2023-09-18T01:32:13;3.35;;;2.63;;
54705;SDS011;40603;48.774;8.916;2023-09-18T01:34:48;6.00;;;2.60;;
54705;SDS011;40603;48.774;8.916;2023-09-18T01:37:16;8.32;;;2.80;;
54705;SDS011;40603;48.774;8.916;2023-09-18T01:39:44;3.35;;;2.28;;
54705;SDS011;40603;48.774;8.916;2023-09-18T01:42:10;3.40;;;2.28;;
54705;SDS011;40603;48.774;8.916;2023-09-18T01:44:36;5.88;;;2.63;;
54705;SDS011;40603;48.774;8.916;2023-09-18T01:47:06;6.07;;;2.28;;
54705;SDS011;40603;48.774;8.916;2023-09-18T01:49:35;7.05;;;2.70;;
54705;SDS011;40603;48.774;8.916;2023-09-18T01:52:02;6.75;;;3.28;;
54705;SDS011;40603;48.774;8.916;2023-09-18T01:54:28;14.05;;;3.15;;
54705;SDS011;40603;48.774;8.916;2023-09-18T01:56:54;12.20;;;3.00;;
54705;SDS011;40603;48.774;8.916;2023-09-18T01:59:20;12.00;;;2.83;;
54705;SDS011;40603;48.774;8.916;2023-09-18T02:01:46;17.25;;;3.67;;
54705;SDS011;40603;48.774;8.916;2023-09-18T02:04:12;8.38;;;2.50;;
54705;SDS011;40603;48.774;8.916;2023-09-18T02:06:37;11.80;;;2.70;;
54705;SDS011;40603;48.774;8.916;2023-09-18T02:09:03;9.98;;;3.17;;
54705;SDS011;40603;48.774;8.916;2023-09-18T02:11:40;12.88;;;3.25;;
54705;SDS011;40603;48.774;8.916;2023-09-18T02:14:07;10.02;;;3.00;;
54705;SDS011;40603;48.774;8.916;2023-09-18T02:16:34;9.88;;;2.67;;
54705;SDS011;40603;48.774;8.916;2023-09-18T02:19:01;9.05;;;3.15;;
54705;SDS011;40603;48.774;8.916;2023-09-18T02:21:26;9.63;;;3.40;;
54705;SDS011;40603;48.774;8.916;2023-09-18T02:23:52;6.93;;;3.15;;
54705;SDS011;40603;48.774;8.916;2023-09-18T02:26:18;8.45;;;2.60;;
54705;SDS011;40603;48.774;8.916;2023-09-18T02:28:43;7.85;;;2.22;;
54705;SDS011;40603;48.774;8.916;2023-09-18T02:31:09;11.00;;;2.47;;
54705;SDS011;40603;48.774;8.916;2023-09-18T02:33:34;8.38;;;3.40;;
54705;SDS011;40603;48.774;8.916;2023-09-18T02:35:59;9.38;;;3.00;;
54705;SDS011;40603;48.774;8.916;2023-09-18T02:38:25;9.00;;;2.92;;
54705;SDS011;40603;48.774;8.916;2023-09-18T02:40:51;9.30;;;3.63;;
54705;SDS011;40603;48.774;8.916;2023-09-18T02:43:18;12.32;;;2.97;;
54705;SDS011;40603;48.774;8.916;2023-09-18T02:45:43;5.93;;;2.55;;
54705;SDS011;40603;48.774;8.916;2023-09-18T02:48:09;11.73;;;3.05;;
54705;SDS011;40603;48.774;8.916;2023-09-18T02:50:35;6.00;;;2.63;;
54705;SDS011;40603;48.774;8.916;2023-09-18T02:53:00;8.52;;;2.63;;
54705;SDS011;40603;48.774;8.916;2023-09-18T02:55:25;6.90;;;2.85;;
54705;SDS011;40603;48.774;8.916;2023-09-18T02:57:51;11.15;;;2.45;;
54705;SDS011;40603;48.774;8.916;2023-09-18T03:00:16;8.15;;;2.90;;
54705;SDS011;40603;48.774;8.916;2023-09-18T03:02:42;7.50;;;2.90;;
54705;SDS011;40603;48.774;8.916;2023-09-18T03:05:07;7.43;;;2.25;;
54705;SDS011;40603;48.774;8.916;2023-09-18T03:07:33;8.05;;;3.17;;
54705;SDS011;40603;48.774;8.916;2023-09-18T03:09:59;8.13;;;2.50;;
54705;SDS011;40603;48.774;8.916;2023-09-18T03:12:24;7.30;;;2.50;;
54705;SDS011;40603;48.774;8.916;2023-09-18T03:14:49;9.70;;;3.22;;
54705;SDS011;40603;48.774;8.916;2023-09-18T03:17:14;11.77;;;2.95;;
54705;SDS011;40603;48.774;8.916;2023-09-18T03:19:40;6.60;;;3.08;;
54705;SDS011;40603;48.774;8.916;2023-09-18T03:22:05;9.25;;;2.80;;
54705;SDS011;40603;48.774;8.916;2023-09-18T03:24:30;11.02;;;2.90;;
54705;SDS011;40603;48.774;8.916;2023-09-18T03:26:56;9.30;;;3.05;;
54705;SDS011;40603;48.774;8.916;2023-09-18T03:29:21;10.13;;;3.00;;
54705;SDS011;40603;48.774;8.916;2023-09-18T03:31:46;8.02;;;2.90;;
54705;SDS011;40603;48.774;8.916;2023-09-18T03:34:12;11.65;;;2.63;;
54705;SDS011;40603;48.774;8.916;2023-09-18T03:36:38;10.88;;;3.10;;
54705;SDS011;40603;48.774;8.916;2023-09-18T03:39:04;8.05;;;2.67;;
54705;SDS011;40603;48.774;8.916;2023-09-18T03:41:30;8.07;;;2.60;;
54705;SDS011;40603;48.774;8.916;2023-09-18T03:43:59;9.13;;;2.78;;
54705;SDS011;40603;48.774;8.916;2023-09-18T03:46:24;13.23;;;2.88;;
54705;SDS011;40603;48.774;8.916;2023-09-18T03:48:50;7.63;;;3.00;;
54705;SDS011;40603;48.774;8.916;2023-09-18T03:51:15;8.13;;;2.55;;
54705;SDS011;40603;48.774;8.916;2023-09-18T03:53:40;12.82;;;2.75;;
54705;SDS011;40603;48.774;8.916;2023-09-18T03:56:06;11.00;;;2.35;;
54705;SDS011;40603;48.774;8.916;2023-09-18T03:58:31;7.38;;;2.97;;
54705;SDS011;40603;48.774;8.916;2023-09-18T04:00:57;6.78;;;3.10;;
54705;SDS011;40603;48.774;8.916;2023-09-18T04:03:22;8.27;;;2.85;;
54705;SDS011;40603;48.774;8.916;2023-09-18T04:05:47;6.28;;;2.60;;
54705;SDS011;40603;48.774;8.916;2023-09-18T04:08:13;6.53;;;2.45;;
54705;SDS011;40603;48.774;8.916;2023-09-18T04:10:38;13.70;;;3.28;;
54705;SDS011;40603;48.774;8.916;2023-09-18T04:13:03;16.75;;;3.35;;
54705;SDS011;40603;48.774;8.916;2023-09-18T04:15:29;8.45;;;2.85;;
54705;SDS011;40603;48.774;8.916;2023-09-18T04:17:55;13.70;;;3.90;;
54705;SDS011;40603;48.774;8.916;2023-09-18T04:20:21;8.10;;;2.70;;
54705;SDS011;40603;48.774;8.916;2023-09-18T04:22:47;10.40;;;2.88;;
54705;SDS011;40603;48.774;8.916;2023-09-18T04:25:18;10.18;;;2.33;;
54705;SDS011;40603;48.774;8.916;2023-09-18T04:27:44;7.88;;;2.90;;
54705;SDS011;40603;48.774;8.916;2023-09-18T04:30:09;7.82;;;2.53;;
54705;SDS011;40603;48.774;8.916;2023-09-18T04:32:38;6.47;;;1.95;;
54705;SDS011;40603;48.774;8.916;2023-09-18T04:35:05;7.85;;;2.00;;
54705;SDS011;40603;48.774;8.916;2023-09-18T04:37:31;9.05;;;2.05;;
54705;SDS011;40603;48.774;8.916;2023-09-18T04:39:59;9.35;;;2.30;;
54705;SDS011;40603;48.774;8.916;2023-09-18T04:42:25;17.08;;;2.90;;
54705;SDS011;40603;48.774;8.916;2023-09-18T04:44:51;7.40;;;2.45;;
54705;SDS011;40603;48.774;8.916;2023-09-18T04:47:16;10.15;;;2.70;;
54705;SDS011;40603;48.774;8.916;2023-09-18T04:49:42;7.35;;;2.35;;
54705;SDS011;40603;48.774;8.916;2023-09-18T04:52:09;8.15;;;2.83;;
54705;SDS011;40603;48.774;8.916;2023-09-18T04:54:35;8.55;;;2.40;;
54705;SDS011;40603;48.774;8.916;2023-09-18T04:57:00;8.00;;;2.70;;
54705;SDS011;40603;48.774;8.916;2023-09-18T04:59:25;7.97;;;2.72;;
54705;SDS011;40603;48.774;8.916;2023-09-18T05:01:50;12.13;;;2.92;;
54705;SDS011;40603;48.774;8.916;2023-09-18T05:04:16;8.30;;;2.85;;
54705;SDS011;40603;48.774;8.916;2023-09-18T05:06:41;10.45;;;2.85;;
54705;SDS011;40603;48.774;8.916;2023-09-18T05:09:07;9.88;;;3.50;;
54705;SDS011;40603;48.774;8.916;2023-09-18T05:11:32;6.55;;;2.45;;
54705;SDS011;40603;48.774;8.916;2023-09-18T05:13:58;13.10;;;2.88;;
54705;SDS011;40603;48.774;8.916;2023-09-18T05:16:24;7.93;;;2.70;;
54705;SDS011;40603;48.774;8.916;2023-09-18T05:18:49;8.20;;;2.80;;
54705;SDS011;40603;48.774;8.916;2023-09-18T05:21:14;10.13;;;2.90;;
54705;SDS011;40603;48.774;8.916;2023-09-18T05:23:40;6.57;;;2.47;;
54705;SDS011;40603;48.774;8.916;2023-09-18T05:26:05;10.68;;;2.65;;
54705;SDS011;40603;48.774;8.916;2023-09-18T05:28:30;9.35;;;2.33;;
54705;SDS011;40603;48.774;8.916;2023-09-18T05:30:56;4.28;;;2.28;;
54705;SDS011;40603;48.774;8.916;2023-09-18T05:33:21;8.35;;;2.50;;
54705;SDS011;40603;48.774;8.916;2023-09-18T05:35:47;14.55;;;2.78;;
54705;SDS011;40603;48.774;8.916;2023-09-18T05:38:13;6.20;;;2.10;;
54705;SDS011;40603;48.774;8.916;2023-09-18T05:40:39;13.85;;;2.40;;
54705;SDS011;40603;48.774;8.916;2023-09-18T05:43:05;8.45;;;2.90;;
54705;SDS011;40603;48.774;8.916;2023-09-18T05:45:30;10.68;;;2.30;;
54705;SDS011;40603;48.774;8.916;2023-09-18T05:47:57;5.25;;;2.03;;
54705;SDS011;40603;48.774;8.916;2023-09-18T05:50:28;8.52;;;2.88;;
54705;SDS011;40603;48.774;8.916;2023-09-18T05:52:55;8.45;;;2.47;;
54705;SDS011;40603;48.774;8.916;2023-09-18T05:55:24;6.90;;;2.08;;
54705;SDS011;40603;48.774;8.916;2023-09-18T05:57:50;8.60;;;2.03;;
54705;SDS011;40603;48.774;8.916;2023-09-18T06:00:15;10.93;;;2.10;;
54705;SDS011;40603;48.774;8.916;2023-09-18T06:02:42;4.60;;;2.40;;
54705;SDS011;40603;48.774;8.916;2023-09-18T06:05:08;7.45;;;2.17;;
54705;SDS011;40603;48.774;8.916;2023-09-18T06:07:36;6.25;;;2.30;;
54705;SDS011;40603;48.774;8.916;2023-09-18T06:10:01;7.13;;;2.13;;
54705;SDS011;40603;48.774;8.916;2023-09-18T06:12:26;6.72;;;2.00;;
54705;SDS011;40603;48.774;8.916;2023-09-18T06:14:52;7.20;;;2.10;;
54705;SDS011;40603;48.774;8.916;2023-09-18T06:17:17;10.70;;;2.20;;
54705;SDS011;40603;48.774;8.916;2023-09-18T06:19:43;8.50;;;2.67;;
54705;SDS011;40603;48.774;8.916;2023-09-18T06:22:09;6.43;;;1.95;;
54705;SDS011;40603;48.774;8.916;2023-09-18T06:24:34;4.75;;;2.03;;
54705;SDS011;40603;48.774;8.916;2023-09-18T06:27:00;9.50;;;2.00;;
54705;SDS011;40603;48.774;8.916;2023-09-18T06:29:25;9.95;;;2.45;;
54705;SDS011;40603;48.774;8.916;2023-09-18T06:31:51;8.75;;;1.67;;
54705;SDS011;40603;48.774;8.916;2023-09-18T06:34:16;9.00;;;2.20;;
54705;SDS011;40603;48.774;8.916;2023-09-18T06:36:42;5.88;;;1.75;;
54705;SDS011;40603;48.774;8.916;2023-09-18T06:39:07;3.88;;;1.40;;
54705;SDS011;40603;48.774;8.916;2023-09-18T06:41:32;7.68;;;1.77;;
54705;SDS011;40603;48.774;8.916;2023-09-18T06:43:58;6.40;;;1.50;;
54705;SDS011;40603;48.774;8.916;2023-09-18T06:46:24;3.67;;;1.70;;
54705;SDS011;40603;48.774;8.916;2023-09-18T06:48:50;4.47;;;1.55;;
54705;SDS011;40603;48.774;8.916;2023-09-18T06:51:16;6.88;;;1.38;;
54705;SDS011;40603;48.774;8.916;2023-09-18T06:53:43;2.88;;;1.10;;
54705;SDS011;40603;48.774;8.916;2023-09-18T06:56:08;4.60;;;1.60;;
54705;SDS011;40603;48.774;8.916;2023-09-18T06:58:34;5.07;;;1.75;;
54705;SDS011;40603;48.774;8.916;2023-09-18T07:00:59;4.22;;;1.30;;
54705;SDS011;40603;48.774;8.916;2023-09-18T07:03:24;3.58;;;1.13;;
54705;SDS011;40603;48.774;8.916;2023-09-18T07:05:50;3.83;;;1.13;;
54705;SDS011;40603;48.774;8.916;2023-09-18T07:08:15;6.43;;;1.65;;
54705;SDS011;40603;48.774;8.916;2023-09-18T07:10:44;3.42;;;1.20;;
54705;SDS011;40603;48.774;8.916;2023-09-18T07:13:09;3.30;;;1.15;;
54705;SDS011;40603;48.774;8.916;2023-09-18T07:15:36;2.30;;;1.02;;
54705;SDS011;40603;48.774;8.916;2023-09-18T07:18:02;6.20;;;1.15;;
54705;SDS011;40603;48.774;8.916;2023-09-18T07:20:27;2.25;;;1.00;;
54705;SDS011;40603;48.774;8.916;2023-09-18T07:22:53;2.72;;;0.75;;
54705;SDS011;40603;48.774;8.916;2023-09-18T07:25:18;2.88;;;0.98;;
54705;SDS011;40603;48.774;8.916;2023-09-18T07:27:43;6.45;;;1.10;;
54705;SDS011;40603;48.774;8.916;2023-09-18T07:30:09;2.65;;;0.80;;
54705;SDS011;40603;48.774;8.916;2023-09-18T07:32:41;3.65;;;1.00;;
54705;SDS011;40603;48.774;8.916;2023-09-18T07:35:08;1.98;;;0.70;;
54705;SDS011;40603;48.774;8.916;2023-09-18T07:37:34;3.28;;;1.45;;
54705;SDS011;40603;48.774;8.916;2023-09-18T07:40:00;3.55;;;0.90;;
54705;SDS011;40603;48.774;8.916;2023-09-18T07:42:25;2.15;;;0.73;;
54705;SDS011;40603;48.774;8.916;2023-09-18T07:44:51;4.28;;;0.82;;
54705;SDS011;40603;48.774;8.916;2023-09-18T07:47:16;5.20;;;1.00;;
54705;SDS011;40603;48.774;8.916;2023-09-18T07:49:42;1.60;;;0.60;;
54705;SDS011;40603;48.774;8.916;2023-09-18T07:52:07;1.58;;;0.90;;
54705;SDS011;40603;48.774;8.916;2023-09-18T07:54:32;2.58;;;1.10;;
54705;SDS011;40603;48.774;8.916;2023-09-18T07:56:58;1.65;;;1.15;;
54705;SDS011;40603;48.774;8.916;2023-09-18T07:59:24;3.08;;;1.00;;
54705;SDS011;40603;48.774;8.916;2023-09-18T08:01:50;9.30;;;1.45;;
54705;SDS011;40603;48.774;8.916;2023-09-18T08:04:15;3.33;;;0.80;;
54705;SDS011;40603;48.774;8.916;2023-09-18T08:06:41;2.70;;;1.00;;
54705;SDS011;40603;48.774;8.916;2023-09-18T08:09:06;3.20;;;0.82;;
54705;SDS011;40603;48.774;8.916;2023-09-18T08:11:34;4.88;;;1.00;;
54705;SDS011;40603;48.774;8.916;2023-09-18T08:14:01;2.17;;;0.85;;
54705;SDS011;40603;48.774;8.916;2023-09-18T08:16:26;1.38;;;0.43;;
54705;SDS011;40603;48.774;8.916;2023-09-18T08:18:52;3.47;;;0.82;;
54705;SDS011;40603;48.774;8.916;2023-09-18T08:21:17;1.98;;;0.95;;
54705;SDS011;40603;48.774;8.916;2023-09-18T08:23:43;4.82;;;0.98;;
54705;SDS011;40603;48.774;8.916;2023-09-18T08:26:08;3.60;;;0.90;;
54705;SDS011;40603;48.774;8.916;2023-09-18T08:28:33;4.00;;;0.93;;
54705;SDS011;40603;48.774;8.916;2023-09-18T08:31:00;0.77;;;0.70;;
54705;SDS011;40603;48.774;8.916;2023-09-18T08:33:26;2.25;;;0.95;;
54705;SDS011;40603;48.774;8.916;2023-09-18T08:35:51;4.10;;;1.05;;
54705;SDS011;40603;48.774;8.916;2023-09-18T08:38:17;1.83;;;1.05;;
54705;SDS011;40603;48.774;8.916;2023-09-18T08:40:42;7.78;;;1.10;;
54705;SDS011;40603;48.774;8.916;2023-09-18T08:43:08;2.40;;;1.00;;
54705;SDS011;40603;48.774;8.916;2023-09-18T08:48:17;5.85;;;1.10;;
54705;SDS011;40603;48.774;8.916;2023-09-18T08:50:42;0.80;;;0.80;;
54705;SDS011;40603;48.774;8.916;2023-09-18T08:53:09;6.30;;;1.80;;
54705;SDS011;40603;48.774;8.916;2023-09-18T08:55:34;6.70;;;2.05;;
54705;SDS011;40603;48.774;8.916;2023-09-18T08:57:59;3.83;;;1.20;;
54705;SDS011;40603;48.774;8.916;2023-09-18T09:00:25;5.00;;;1.80;;
54705;SDS011;40603;48.774;8.916;2023-09-18T09:02:51;3.60;;;1.40;;
54705;SDS011;40603;48.774;8.916;2023-09-18T09:05:19;6.43;;;1.05;;
54705;SDS011;40603;48.774;8.916;2023-09-18T09:07:44;4.22;;;1.25;;
54705;SDS011;40603;48.774;8.916;2023-09-18T09:10:10;4.03;;;1.15;;
54705;SDS011;40603;48.774;8.916;2023-09-18T09:12:48;1.38;;;1.10;;
54705;SDS011;40603;48.774;8.916;2023-09-18T09:15:20;8.65;;;1.73;;
54705;SDS011;40603;48.774;8.916;2023-09-18T09:17:46;2.63;;;0.90;;
54705;SDS011;40603;48.774;8.916;2023-09-18T09:20:12;3.42;;;1.38;;
54705;SDS011;40603;48.774;8.916;2023-09-18T09:22:39;8.27;;;1.67;;
54705;SDS011;40603;48.774;8.916;2023-09-18T09:25:21;4.07;;;1.10;;
54705;SDS011;40603;48.774;8.916;2023-09-18T09:27:51;2.30;;;1.40;;
54705;SDS011;40603;48.774;8.916;2023-09-18T09:30:18;2.42;;;0.85;;
54705;SDS011;40603;48.774;8.916;2023-09-18T09:32:47;4.53;;;1.25;;
54705;SDS011;40603;48.774;8.916;2023-09-18T09:35:18;4.25;;;1.30;;
54705;SDS011;40603;48.774;8.916;2023-09-18T09:37:52;1.88;;;1.05;;
54705;SDS011;40603;48.774;8.916;2023-09-18T09:40:20;4.07;;;1.73;;
54705;SDS011;40603;48.774;8.916;2023-09-18T09:42:46;8.82;;;1.42;;
54705;SDS011;40603;48.774;8.916;2023-09-18T09:45:12;3.13;;;1.20;;
54705;SDS011;40603;48.774;8.916;2023-09-18T09:47:39;4.40;;;0.88;;
54705;SDS011;40603;48.774;8.916;2023-09-18T09:50:08;4.38;;;1.20;;
54705;SDS011;40603;48.774;8.916;2023-09-18T09:52:35;4.45;;;1.35;;
54705;SDS011;40603;48.774;8.916;2023-09-18T09:55:02;3.72;;;1.60;;
54705;SDS011;40603;48.774;8.916;2023-09-18T09:57:30;3.67;;;1.08;;
54705;SDS011;40603;48.774;8.916;2023-09-18T10:00:02;1.55;;;1.10;;
54705;SDS011;40603;48.774;8.916;2023-09-18T10:02:46;10.77;;;1.95;;
54705;SDS011;40603;48.774;8.916;2023-09-18T10:05:12;1.83;;;0.93;;
54705;SDS011;40603;48.774;8.916;2023-09-18T10:07:37;4.30;;;1.20;;
54705;SDS011;40603;48.774;8.916;2023-09-18T10:10:03;4.93;;;1.13;;
54705;SDS011;40603;48.774;8.916;2023-09-18T10:12:28;5.15;;;1.17;;
54705;SDS011;40603;48.774;8.916;2023-09-18T10:14:54;3.13;;;1.50;;
54705;SDS011;40603;48.774;8.916;2023-09-18T10:17:21;7.10;;;1.60;;
54705;SDS011;40603;48.774;8.916;2023-09-18T10:19:53;4.63;;;1.45;;
54705;SDS011;40603;48.774;8.916;2023-09-18T10:22:46;2.92;;;1.25;;
54705;SDS011;40603;48.774;8.916;2023-09-18T10:25:19;3.05;;;0.95;;
54705;SDS011;40603;48.774;8.916;2023-09-18T10:27:47;4.20;;;1.13;;
54705;SDS011;40603;48.774;8.916;2023-09-18T10:30:18;5.15;;;1.27;;
54705;SDS011;40603;48.774;8.916;2023-09-18T10:32:45;5.93;;;1.08;;
54705;SDS011;40603;48.774;8.916;2023-09-18T10:35:14;5.22;;;1.25;;
54705;SDS011;40603;48.774;8.916;2023-09-18T10:37:41;6.65;;;1.40;;
54705;SDS011;40603;48.774;8.916;2023-09-18T10:40:10;2.90;;;1.70;;
54705;SDS011;40603;48.774;8.916;2023-09-18T10:42:40;5.72;;;1.73;;
54705;SDS011;40603;48.774;8.916;2023-09-18T10:45:07;5.55;;;1.45;;
54705;SDS011;40603;48.774;8.916;2023-09-18T10:47:35;3.22;;;1.52;;
54705;SDS011;40603;48.774;8.916;2023-09-18T10:50:05;4.72;;;1.40;;
54705;SDS011;40603;48.774;8.916;2023-09-18T10:52:32;4.53;;;1.33;;
54705;SDS011;40603;48.774;8.916;2023-09-18T10:54:58;6.95;;;1.42;;
54705;SDS011;40603;48.774;8.916;2023-09-18T10:57:23;4.70;;;1.40;;
54705;SDS011;40603;48.774;8.916;2023-09-18T10:59:49;4.15;;;1.63;;
54705;SDS011;40603;48.774;8.916;2023-09-18T11:02:14;5.60;;;1.60;;
54705;SDS011;40603;48.774;8.916;2023-09-18T11:04:41;4.22;;;1.80;;
54705;SDS011;40603;48.774;8.916;2023-09-18T11:07:07;3.30;;;1.63;;
54705;SDS011;40603;48.774;8.916;2023-09-18T11:09:41;5.15;;;1.70;;
54705;SDS011;40603;48.774;8.916;2023-09-18T11:12:10;4.93;;;1.60;;
54705;SDS011;40603;48.774;8.916;2023-09-18T11:14:43;6.75;;;1.38;;
54705;SDS011;40603;48.774;8.916;2023-09-18T11:17:28;5.35;;;1.48;;
54705;SDS011;40603;48.774;8.916;2023-09-18T11:22:49;3.83;;;2.17;;
54705;SDS011;40603;48.774;8.916;2023-09-18T11:28:14;3.42;;;1.30;;
54705;SDS011;40603;48.774;8.916;2023-09-18T11:30:50;10.10;;;1.65;;
54705;SDS011;40603;48.774;8.916;2023-09-18T11:36:01;3.83;;;1.23;;
54705;SDS011;40603;48.774;8.916;2023-09-18T11:38:30;3.92;;;1.58;;
54705;SDS011;40603;48.774;8.916;2023-09-18T11:40:55;4.60;;;1.73;;
54705;SDS011;40603;48.774;8.916;2023-09-18T11:43:23;6.45;;;1.45;;
54705;SDS011;40603;48.774;8.916;2023-09-18T11:45:54;6.28;;;1.45;;
54705;SDS011;40603;48.774;8.916;2023-09-18T11:48:24;5.97;;;1.20;;
54705;SDS011;40603;48.774;8.916;2023-09-18T11:50:53;1.58;;;1.23;;
54705;SDS011;40603;48.774;8.916;2023-09-18T11:53:19;3.28;;;2.05;;
54705;SDS011;40603;48.774;8.916;2023-09-18T11:55:45;3.42;;;1.20;;
54705;SDS011;40603;48.774;8.916;2023-09-18T11:58:11;3.53;;;1.40;;
54705;SDS011;40603;48.774;8.916;2023-09-18T12:00:36;3.58;;;1.40;;
54705;SDS011;40603;48.774;8.916;2023-09-18T12:03:14;4.57;;;1.73;;
54705;SDS011;40603;48.774;8.916;2023-09-18T12:05:43;3.45;;;1.30;;
54705;SDS011;40603;48.774;8.916;2023-09-18T12:08:09;4.43;;;1.58;;
54705;SDS011;40603;48.774;8.916;2023-09-18T12:10:36;4.25;;;1.83;;
54705;SDS011;40603;48.774;8.916;2023-09-18T12:13:05;2.55;;;1.20;;
54705;SDS011;40603;48.774;8.916;2023-09-18T12:18:04;3.10;;;1.00;;
54705;SDS011;40603;48.774;8.916;2023-09-18T12:20:31;5.10;;;1.30;;
54705;SDS011;40603;48.774;8.916;2023-09-18T12:22:59;2.42;;;1.17;;
54705;SDS011;40603;48.774;8.916;2023-09-18T12:25:24;4.88;;;1.30;;
54705;SDS011;40603;48.774;8.916;2023-09-18T12:27:52;5.00;;;1.20;;
54705;SDS011;40603;48.774;8.916;2023-09-18T12:30:18;2.75;;;1.35;;
54705;SDS011;40603;48.774;8.916;2023-09-18T12:32:46;1.58;;;1.20;;
54705;SDS011;40603;48.774;8.916;2023-09-18T12:35:13;3.60;;;1.10;;
54705;SDS011;40603;48.774;8.916;2023-09-18T12:37:39;1.27;;;0.90;;
54705;SDS011;40603;48.774;8.916;2023-09-18T12:40:05;1.65;;;0.93;;
54705;SDS011;40603;48.774;8.916;2023-09-18T12:42:36;4.18;;;1.23;;
54705;SDS011;40603;48.774;8.916;2023-09-18T12:45:05;2.30;;;0.90;;
54705;SDS011;40603;48.774;8.916;2023-09-18T12:47:33;5.28;;;1.20;;
54705;SDS011;40603;48.774;8.916;2023-09-18T12:50:05;7.15;;;1.15;;
54705;SDS011;40603;48.774;8.916;2023-09-18T12:52:36;4.50;;;1.00;;
54705;SDS011;40603;48.774;8.916;2023-09-18T12:55:01;3.58;;;0.93;;
54705;SDS011;40603;48.774;8.916;2023-09-18T12:57:29;4.32;;;1.13;;
54705;SDS011;40603;48.774;8.916;2023-09-18T12:59:55;1.90;;;1.00;;
54705;SDS011;40603;48.774;8.916;2023-09-18T13:02:20;2.75;;;1.15;;
54705;SDS011;40603;48.774;8.916;2023-09-18T13:04:52;2.80;;;0.95;;
54705;SDS011;40603;48.774;8.916;2023-09-18T13:07:18;3.13;;;1.20;;
54705;SDS011;40603;48.774;8.916;2023-09-18T13:09:57;5.07;;;0.98;;
54705;SDS011;40603;48.774;8.916;2023-09-18T13:12:38;3.08;;;0.93;;
54705;SDS011;40603;48.774;8.916;2023-09-18T13:15:08;6.10;;;1.30;;
54705;SDS011;40603;48.774;8.916;2023-09-18T13:17:43;3.38;;;1.10;;
54705;SDS011;40603;48.774;8.916;2023-09-18T13:20:11;5.32;;;1.02;;
54705;SDS011;40603;48.774;8.916;2023-09-18T13:22:38;3.72;;;1.25;;
54705;SDS011;40603;48.774;8.916;2023-09-18T13:25:05;1.35;;;0.93;;
54705;SDS011;40603;48.774;8.916;2023-09-18T13:27:32;2.97;;;1.30;;
54705;SDS011;40603;48.774;8.916;2023-09-18T13:29:57;3.42;;;1.40;;
54705;SDS011;40603;48.774;8.916;2023-09-18T13:32:31;3.95;;;1.35;;
54705;SDS011;40603;48.774;8.916;2023-09-18T13:34:57;3.05;;;1.65;;
54705;SDS011;40603;48.774;8.916;2023-09-18T13:37:22;2.65;;;0.90;;
54705;SDS011;40603;48.774;8.916;2023-09-18T13:39:48;7.78;;;1.45;;
54705;SDS011;40603;48.774;8.916;2023-09-18T13:42:13;2.78;;;1.13;;
54705;SDS011;40603;48.774;8.916;2023-09-18T13:44:38;3.80;;;1.13;;
54705;SDS011;40603;48.774;8.916;2023-09-18T13:47:03;3.55;;;1.30;;
54705;SDS011;40603;48.774;8.916;2023-09-18T13:49:29;3.08;;;1.00;;
54705;SDS011;40603;48.774;8.916;2023-09-18T13:51:54;2.00;;;1.20;;
54705;SDS011;40603;48.774;8.916;2023-09-18T13:54:21;2.30;;;0.85;;
54705;SDS011;40603;48.774;8.916;2023-09-18T13:56:47;2.17;;;1.10;;
54705;SDS011;40603;48.774;8.916;2023-09-18T13:59:12;3.83;;;1.10;;
54705;SDS011;40603;48.774;8.916;2023-09-18T14:01:38;2.20;;;1.00;;
54705;SDS011;40603;48.774;8.916;2023-09-18T14:04:03;2.58;;;0.80;;
54705;SDS011;40603;48.774;8.916;2023-09-18T14:06:29;2.63;;;1.25;;
54705;SDS011;40603;48.774;8.916;2023-09-18T14:08:54;5.05;;;1.00;;
54705;SDS011;40603;48.774;8.916;2023-09-18T14:11:19;3.55;;;1.25;;
54705;SDS011;40603;48.774;8.916;2023-09-18T14:13:46;1.10;;;1.00;;
54705;SDS011;40603;48.774;8.916;2023-09-18T14:16:12;3.55;;;0.90;;
54705;SDS011;40603;48.774;8.916;2023-09-18T14:18:39;2.78;;;1.20;;
54705;SDS011;40603;48.774;8.916;2023-09-18T14:21:04;2.92;;;0.90;;
54705;SDS011;40603;48.774;8.916;2023-09-18T14:23:31;4.20;;;1.02;;
54705;SDS011;40603;48.774;8.916;2023-09-18T14:25:58;3.65;;;0.93;;
54705;SDS011;40603;48.774;8.916;2023-09-18T14:28:25;1.85;;;0.88;;
54705;SDS011;40603;48.774;8.916;2023-09-18T14:30:50;1.58;;;0.90;;
54705;SDS011;40603;48.774;8.916;2023-09-18T14:33:16;2.45;;;1.02;;
54705;SDS011;40603;48.774;8.916;2023-09-18T14:35:41;3.63;;;1.00;;
54705;SDS011;40603;48.774;8.916;2023-09-18T14:38:07;2.20;;;0.85;;
54705;SDS011;40603;48.774;8.916;2023-09-18T14:40:33;4.68;;;1.02;;
54705;SDS011;40603;48.774;8.916;2023-09-18T14:42:58;2.33;;;1.05;;
54705;SDS011;40603;48.774;8.916;2023-09-18T14:45:23;2.30;;;1.25;;
54705;SDS011;40603;48.774;8.916;2023-09-18T14:47:50;1.92;;;0.90;;
54705;SDS011;40603;48.774;8.916;2023-09-18T14:50:15;3.35;;;0.88;;
54705;SDS011;40603;48.774;8.916;2023-09-18T14:52:40;3.22;;;1.58;;
54705;SDS011;40603;48.774;8.916;2023-09-18T14:55:06;1.83;;;1.00;;
54705;SDS011;40603;48.774;8.916;2023-09-18T14:57:31;3.03;;;0.75;;